createdAt,value
2018-02-19T00:00:07.208Z,89.50
2018-02-19T00:02:38.846Z,88.40
2018-02-19T00:05:10.022Z,88.30
2018-02-19T00:07:40.747Z,88.40
2018-02-19T00:10:12.575Z,88.40
2018-02-19T00:12:43.383Z,88.40
2018-02-19T00:15:14.258Z,88.20
2018-02-19T00:17:45.058Z,87.90
2018-02-19T00:20:15.960Z,85.40
2018-02-19T00:22:47.106Z,84.70
2018-02-19T00:25:17.907Z,84.90
2018-02-19T00:27:48.575Z,83.60
2018-02-19T00:30:19.482Z,82.30
2018-02-19T00:32:49.958Z,83.50
2018-02-19T00:35:20.831Z,84.70
2018-02-19T00:37:51.626Z,82.80
2018-02-19T00:40:22.288Z,81.50
2018-02-19T00:42:53.050Z,80.40
2018-02-19T00:45:23.743Z,79.40
2018-02-19T00:47:54.622Z,77.00
2018-02-19T00:50:26.339Z,71.10
2018-02-19T00:52:57.107Z,72.40
2018-02-19T00:55:27.971Z,69.40
2018-02-19T00:57:59.531Z,66.80
2018-02-19T01:00:30.218Z,66.80
2018-02-19T01:03:01.087Z,66.90
2018-02-19T01:05:32.265Z,66.90
2018-02-19T01:08:03.067Z,66.90
2018-02-19T01:10:34.740Z,69.60
2018-02-19T01:13:05.575Z,69.70
2018-02-19T01:15:36.287Z,70.60
2018-02-19T01:18:07.823Z,72.80
2018-02-19T01:20:38.579Z,72.70
2018-02-19T01:23:10.306Z,73.00
2018-02-19T01:25:41.201Z,72.90
2018-02-19T01:28:12.137Z,71.20
2018-02-19T01:30:43.110Z,70.20
2018-02-19T01:33:13.769Z,70.20
2018-02-19T01:35:46.854Z,68.70
2018-02-19T01:38:18.494Z,69.00
2018-02-19T01:40:49.454Z,68.90
2018-02-19T01:43:21.062Z,67.80
2018-02-19T01:45:52.066Z,67.80
2018-02-19T01:48:23.478Z,69.50
2018-02-19T01:50:54.389Z,69.50
2018-02-19T01:53:25.257Z,69.80
2018-02-19T01:58:33.074Z,69.10
2018-02-19T02:01:03.815Z,69.10
2018-02-19T02:03:34.657Z,69.40
2018-02-19T02:06:06.436Z,67.60
2018-02-19T02:08:37.414Z,67.50
2018-02-19T02:11:08.405Z,67.00
2018-02-19T02:13:40.065Z,69.50
2018-02-19T02:16:11.517Z,68.90
2018-02-19T02:18:43.039Z,67.70
2018-02-19T02:21:13.744Z,67.70
2018-02-19T02:23:45.089Z,67.50
2018-02-19T02:26:15.814Z,67.40
2018-02-19T02:28:46.330Z,66.60
2018-02-19T02:31:17.080Z,66.10
2018-02-19T02:33:47.965Z,66.40
2018-02-19T02:36:18.760Z,66.40
2018-02-19T02:38:49.475Z,65.70
2018-02-19T02:41:20.218Z,63.50
2018-02-19T02:43:51.066Z,63.60
2018-02-19T02:46:21.888Z,64.90
2018-02-19T02:48:52.734Z,65.00
2018-02-19T02:51:23.687Z,65.00
2018-02-19T02:53:55.590Z,66.30
2018-02-19T02:56:27.281Z,64.10
2018-02-19T02:58:58.499Z,64.80
2018-02-19T03:01:30.248Z,64.30
2018-02-19T03:04:01.882Z,64.90
2018-02-19T03:06:32.737Z,64.80
2018-02-19T03:09:04.406Z,63.90
2018-02-19T03:11:35.949Z,64.50
2018-02-19T03:14:07.482Z,63.90
2018-02-19T03:16:38.294Z,63.80
2018-02-19T03:19:09.042Z,65.90
2018-02-19T03:21:39.919Z,67.20
2018-02-19T03:24:12.235Z,65.60
2018-02-19T03:26:43.110Z,65.60
2018-02-19T03:29:14.731Z,67.40
2018-02-19T03:31:45.550Z,67.20
2018-02-19T03:34:17.093Z,68.90
2018-02-19T03:36:48.362Z,68.80
2018-02-19T03:39:19.306Z,68.60
2018-02-19T03:41:50.203Z,68.50
2018-02-19T03:44:21.154Z,67.80
2018-02-19T03:46:51.997Z,67.00
2018-02-19T03:49:22.898Z,66.20
2018-02-19T03:51:54.428Z,63.30
2018-02-19T03:54:25.154Z,63.20
2018-02-19T03:56:56.024Z,64.30
2018-02-19T03:59:27.641Z,64.70
2018-02-19T04:01:58.285Z,64.70
2018-02-19T04:04:29.787Z,64.40
2018-02-19T04:07:00.601Z,63.70
2018-02-19T04:09:32.190Z,63.50
2018-02-19T04:12:02.909Z,63.40
2018-02-19T04:14:33.807Z,62.40
2018-02-19T04:17:04.743Z,62.70
2018-02-19T04:19:35.338Z,62.70
2018-02-19T04:22:06.101Z,62.80
2018-02-19T04:24:36.798Z,63.10
2018-02-19T04:27:07.644Z,63.30
2018-02-19T04:29:38.466Z,62.70
2018-02-19T04:32:09.567Z,63.20
2018-02-19T04:34:41.567Z,63.50
2018-02-19T04:37:12.407Z,63.40
2018-02-19T04:39:43.271Z,61.50
2018-02-19T04:42:14.079Z,62.00
2018-02-19T04:44:55.704Z,62.30
2018-02-19T04:47:27.491Z,60.80
2018-02-19T04:49:59.039Z,60.60
2018-02-19T04:52:30.597Z,59.10
2018-02-19T04:55:02.318Z,58.00
2018-02-19T04:57:32.910Z,57.90
2018-02-19T05:00:03.622Z,58.70
2018-02-19T05:02:35.318Z,58.20
2018-02-19T05:05:06.227Z,58.20
2018-02-19T05:07:37.038Z,58.60
2018-02-19T05:10:09.006Z,58.70
2018-02-19T05:12:40.755Z,59.20
2018-02-19T05:15:11.675Z,59.20
2018-02-19T05:17:42.616Z,59.40
2018-02-19T05:20:14.097Z,58.30
2018-02-19T05:22:45.538Z,58.20
2018-02-19T05:25:17.184Z,58.40
2018-02-19T05:27:48.021Z,58.40
2018-02-19T05:30:18.910Z,58.80
2018-02-19T05:32:50.202Z,58.50
2018-02-19T05:35:21.016Z,57.60
2018-02-19T05:37:51.878Z,57.60
2018-02-19T05:40:23.174Z,56.80
2018-02-19T05:42:54.665Z,57.40
2018-02-19T05:45:25.795Z,56.00
2018-02-19T05:47:56.681Z,56.30
2018-02-19T05:50:28.325Z,55.90
2018-02-19T05:53:00.135Z,55.40
2018-02-19T05:55:31.309Z,55.40
2018-02-19T05:58:02.382Z,55.40
2018-02-19T06:00:33.955Z,55.60
2018-02-19T06:03:04.834Z,55.60
2018-02-19T06:05:35.658Z,55.80
2018-02-19T06:08:06.351Z,56.10
2018-02-19T06:10:36.977Z,55.70
2018-02-19T06:13:07.992Z,56.50
2018-02-19T06:15:40.487Z,56.20
2018-02-19T06:18:11.408Z,55.70
2018-02-19T06:20:42.877Z,57.00
2018-02-19T06:23:13.802Z,57.00
2018-02-19T06:25:45.502Z,57.40
2018-02-19T06:28:16.292Z,57.40
2018-02-19T06:30:47.084Z,56.80
2018-02-19T06:33:18.491Z,57.40
2018-02-19T06:35:50.808Z,57.40
2018-02-19T06:38:21.343Z,57.40
2018-02-19T06:40:52.181Z,57.80
2018-02-19T06:43:23.134Z,57.30
2018-02-19T06:45:53.999Z,56.90
2018-02-19T06:48:25.731Z,57.60
2018-02-19T06:50:56.665Z,57.60
2018-02-19T06:53:27.506Z,58.00
2018-02-19T06:55:59.690Z,59.40
2018-02-19T06:58:31.227Z,59.90
2018-02-19T07:01:01.907Z,59.80
2018-02-19T07:03:32.443Z,60.60
2018-02-19T07:06:04.661Z,61.10
2018-02-19T07:08:36.118Z,62.70
2018-02-19T07:11:14.918Z,62.80
2018-02-19T07:13:46.074Z,62.80
2018-02-19T07:16:16.825Z,62.90
2018-02-19T07:18:48.855Z,63.80
2018-02-19T07:21:19.643Z,63.80
2018-02-19T07:23:50.517Z,63.80
2018-02-19T07:26:21.450Z,63.70
2018-02-19T07:28:52.265Z,62.50
2018-02-19T07:31:23.178Z,61.70
2018-02-19T07:33:54.738Z,59.10
2018-02-19T07:36:26.277Z,59.50
2018-02-19T07:38:57.930Z,59.50
2018-02-19T07:41:29.538Z,59.50
2018-02-19T07:44:01.034Z,59.70
2018-02-19T07:46:32.217Z,59.70
2018-02-19T07:49:03.223Z,59.70
2018-02-19T07:51:35.291Z,59.90
2018-02-19T07:54:06.834Z,59.40
2018-02-19T07:56:39.410Z,58.80
2018-02-19T07:59:11.112Z,57.00
2018-02-19T08:01:41.894Z,57.00
2018-02-19T08:04:13.002Z,58.60
2018-02-19T08:06:43.771Z,57.80
2018-02-19T08:09:14.649Z,56.60
2018-02-19T08:11:45.824Z,55.80
2018-02-19T08:14:17.310Z,54.90
2018-02-19T08:16:48.156Z,54.80
2018-02-19T08:19:18.941Z,54.10
2018-02-19T08:21:49.705Z,53.30
2018-02-19T08:24:20.744Z,52.40
2018-02-19T08:26:51.680Z,52.20
2018-02-19T08:29:22.837Z,51.70
2018-02-19T08:31:53.627Z,51.30
2018-02-19T08:34:24.533Z,54.50
2018-02-19T08:36:56.055Z,54.10
2018-02-19T08:39:26.950Z,54.10
2018-02-19T08:41:57.799Z,53.90
2018-02-19T08:44:28.622Z,52.40
2018-02-19T08:46:59.533Z,52.10
2018-02-19T08:49:31.993Z,53.40
2018-02-19T08:52:03.531Z,51.30
2018-02-19T08:54:34.375Z,51.30
2018-02-19T08:57:05.312Z,50.50
2018-02-19T08:59:36.308Z,51.30
2018-02-19T09:02:07.812Z,53.80
2018-02-19T09:04:38.902Z,54.00
2018-02-19T09:07:09.391Z,53.90
2018-02-19T09:09:40.631Z,52.90
2018-02-19T09:12:12.018Z,54.90
2018-02-19T09:14:42.813Z,54.90
2018-02-19T09:17:14.243Z,55.10
2018-02-19T09:19:45.906Z,54.40
2018-02-19T09:22:16.577Z,54.40
2018-02-19T09:24:47.494Z,53.60
2018-02-19T09:27:18.742Z,51.90
2018-02-19T09:29:50.397Z,51.70
2018-02-19T09:32:21.842Z,52.20
2018-02-19T09:34:53.459Z,52.20
2018-02-19T09:37:24.214Z,52.20
2018-02-19T09:39:55.008Z,51.30
2018-02-19T09:42:26.065Z,52.10
2018-02-19T09:44:56.994Z,52.20
2018-02-19T09:47:27.786Z,52.70
2018-02-19T09:50:00.995Z,51.80
2018-02-19T09:52:31.467Z,51.80
2018-02-19T09:55:02.286Z,51.20
2018-02-19T09:57:33.151Z,51.60
2018-02-19T10:00:04.019Z,52.00
2018-02-19T10:02:35.482Z,52.50
2018-02-19T10:05:06.242Z,52.10
2018-02-19T10:07:37.121Z,52.70
2018-02-19T10:10:08.755Z,52.40
2018-02-19T10:12:39.738Z,52.30
2018-02-19T10:15:11.336Z,51.90
2018-02-19T10:17:42.352Z,51.80
2018-02-19T10:20:13.829Z,51.60
2018-02-19T10:22:44.703Z,51.90
2018-02-19T10:25:15.390Z,54.70
2018-02-19T10:27:46.254Z,54.90
2018-02-19T10:30:17.118Z,58.30
2018-02-19T10:32:48.664Z,58.90
2018-02-19T10:35:20.278Z,58.90
2018-02-19T10:37:51.053Z,58.80
2018-02-19T10:40:22.662Z,60.80
2018-02-19T10:42:53.731Z,60.10
2018-02-19T10:45:24.603Z,60.80
2018-02-19T10:47:56.338Z,61.30
2018-02-19T10:50:27.071Z,61.30
2018-02-19T10:52:58.002Z,61.60
2018-02-19T10:55:28.708Z,61.20
2018-02-19T10:57:59.460Z,61.10
2018-02-19T11:00:35.146Z,61.60
2018-02-19T11:03:06.642Z,62.20
2018-02-19T11:05:37.437Z,62.20
2018-02-19T11:08:09.152Z,62.30
2018-02-19T11:10:39.818Z,62.20
2018-02-19T11:13:11.599Z,62.00
2018-02-19T11:15:42.052Z,62.00
2018-02-19T11:18:12.442Z,62.60
2018-02-19T11:20:42.890Z,62.70
2018-02-19T11:23:13.283Z,62.90
2018-02-19T11:25:45.038Z,62.70
2018-02-19T11:28:17.855Z,62.70
2018-02-19T11:30:48.448Z,62.70
2018-02-19T11:33:21.050Z,64.50
2018-02-19T11:35:52.029Z,64.50
2018-02-19T11:38:23.819Z,64.00
2018-02-19T11:40:55.225Z,64.10
2018-02-19T11:43:26.215Z,64.10
2018-02-19T11:45:57.992Z,65.10
2018-02-19T11:48:28.733Z,65.00
2018-02-19T11:50:59.430Z,65.50
2018-02-19T11:53:32.728Z,66.10
2018-02-19T11:56:03.797Z,65.60
2018-02-19T11:58:34.538Z,65.70
2018-02-19T12:01:05.571Z,65.90
2018-02-19T12:03:36.563Z,66.30
2018-02-19T12:06:07.320Z,66.70
2018-02-19T12:08:39.084Z,67.10
2018-02-19T12:14:31.986Z,67.20
2018-02-19T12:17:02.967Z,67.30
2018-02-19T12:19:33.935Z,67.50
2018-02-19T12:22:05.707Z,68.60
2018-02-19T12:24:37.483Z,69.70
2018-02-19T12:27:08.258Z,69.70
2018-02-19T12:29:38.858Z,70.40
2018-02-19T12:32:09.756Z,70.90
2018-02-19T12:34:41.378Z,70.80
2018-02-19T12:37:12.130Z,70.70
2018-02-19T12:39:43.383Z,71.30
2018-02-19T12:42:15.054Z,74.10
2018-02-19T12:44:46.658Z,76.20
2018-02-19T12:47:17.393Z,76.20
2018-02-19T12:49:48.007Z,76.60
2018-02-19T12:52:18.855Z,76.80
2018-02-19T12:54:49.618Z,75.50
2018-02-19T12:57:20.317Z,73.30
2018-02-19T12:59:51.136Z,72.10
2018-02-19T13:02:22.230Z,71.70
2018-02-19T13:04:53.766Z,70.60
2018-02-19T13:07:25.283Z,70.50
2018-02-19T13:09:56.062Z,70.40
2018-02-19T13:12:27.163Z,70.50
2018-02-19T13:14:58.206Z,70.10
2018-02-19T13:17:29.122Z,69.00
2018-02-19T13:19:59.836Z,68.70
2018-02-19T13:22:31.380Z,68.40
2018-02-19T13:25:02.003Z,68.40
2018-02-19T13:27:32.714Z,67.00
2018-02-19T13:30:03.214Z,67.10
2018-02-19T13:32:34.010Z,67.50
2018-02-19T13:35:04.452Z,68.10
2018-02-19T13:37:36.083Z,68.90
2018-02-19T13:40:06.804Z,68.90
2018-02-19T13:42:37.625Z,69.60
2018-02-19T13:45:08.723Z,70.40
2018-02-19T13:47:40.489Z,72.90
2018-02-19T13:50:11.133Z,72.90
2018-02-19T13:52:41.905Z,74.20
2018-02-19T13:55:12.866Z,75.60
2018-02-19T13:57:43.762Z,76.20
2018-02-19T14:00:14.805Z,76.20
2018-02-19T14:02:45.937Z,75.80
2018-02-19T14:05:16.757Z,75.50
2018-02-19T14:07:47.585Z,75.10
2018-02-19T14:10:18.343Z,74.50
2018-02-19T14:12:49.499Z,73.70
2018-02-19T14:15:20.924Z,73.30
2018-02-19T14:17:51.505Z,73.20
2018-02-19T14:20:22.429Z,73.00
2018-02-19T14:22:53.234Z,72.40
2018-02-19T14:25:24.130Z,71.60
2018-02-19T14:27:55.015Z,70.80
2018-02-19T14:30:25.817Z,69.80
2018-02-19T14:32:57.394Z,67.90
2018-02-19T14:35:28.005Z,67.90
2018-02-19T14:38:00.291Z,67.10
2018-02-19T14:40:30.945Z,67.10
2018-02-19T14:43:01.974Z,67.60
2018-02-19T14:45:32.906Z,68.10
2018-02-19T14:48:03.815Z,68.80
2018-02-19T14:50:35.411Z,71.80
2018-02-19T14:53:06.241Z,71.80
2018-02-19T14:55:36.846Z,71.40
2018-02-19T14:58:08.493Z,71.00
2018-02-19T15:00:42.521Z,71.10
2018-02-19T15:03:13.242Z,71.10
2018-02-19T15:05:44.691Z,71.50
2018-02-19T15:08:15.528Z,71.50
2018-02-19T15:10:47.087Z,73.30
2018-02-19T15:13:19.050Z,76.00
2018-02-19T15:15:50.659Z,77.00
2018-02-19T15:18:22.008Z,77.00
2018-02-19T15:20:52.944Z,80.40
2018-02-19T15:23:23.832Z,81.70
2018-02-19T15:25:55.449Z,80.80
2018-02-19T15:28:26.544Z,80.10
2018-02-19T15:30:57.442Z,78.80
2018-02-19T15:33:28.586Z,78.60
2018-02-19T15:35:59.709Z,79.50
2018-02-19T15:38:30.671Z,82.20
2018-02-19T15:41:02.350Z,82.50
2018-02-19T15:43:34.063Z,83.80
2018-02-19T15:46:04.767Z,83.60
2018-02-19T15:48:35.457Z,83.20
2018-02-19T15:51:07.211Z,82.10
2018-02-19T15:53:38.826Z,82.60
2018-02-19T15:56:09.683Z,82.60
2018-02-19T15:58:40.648Z,83.70
2018-02-19T16:01:12.410Z,87.50
2018-02-19T16:03:44.640Z,85.60
2018-02-19T16:06:15.786Z,85.60
2018-02-19T16:08:46.617Z,86.20
2018-02-19T16:11:17.388Z,88.30
2018-02-19T16:13:49.023Z,87.00
2018-02-19T16:16:20.838Z,87.20
2018-02-19T16:18:52.531Z,87.10
2018-02-19T16:21:23.374Z,88.40
2018-02-19T16:23:54.297Z,90.40
2018-02-19T16:26:25.244Z,91.40
2018-02-19T16:28:56.515Z,91.50
2018-02-19T16:31:29.822Z,90.60
2018-02-19T16:34:01.477Z,91.10
2018-02-19T16:36:33.196Z,91.10
2018-02-19T16:39:04.181Z,91.10
2018-02-19T16:41:36.007Z,92.30
2018-02-19T16:44:06.798Z,92.30
2018-02-19T16:46:37.959Z,92.90
2018-02-19T16:49:08.911Z,92.60
2018-02-19T16:51:39.699Z,92.60
2018-02-19T16:54:11.348Z,93.20
2018-02-19T16:56:42.986Z,93.30
2018-02-19T16:59:14.626Z,92.50
2018-02-19T17:01:45.441Z,92.40
2018-02-19T17:04:16.310Z,92.90
2018-02-19T17:06:47.215Z,93.00
2018-02-19T17:09:18.768Z,92.70
2018-02-19T17:11:49.841Z,93.00
2018-02-19T17:14:20.502Z,93.00
2018-02-19T17:16:51.406Z,93.40
2018-02-19T17:19:22.116Z,92.80
2018-02-19T17:21:53.418Z,92.70
2018-02-19T17:24:24.935Z,92.40
2018-02-19T17:26:55.804Z,92.40
2018-02-19T17:29:27.361Z,92.60
2018-02-19T17:31:58.082Z,92.60
2018-02-19T17:34:29.835Z,92.80
2018-02-19T17:37:01.509Z,92.90
2018-02-19T17:39:32.374Z,92.90
2018-02-19T17:42:03.861Z,92.50
2018-02-19T17:44:34.777Z,92.40
2018-02-19T17:47:05.647Z,92.40
2018-02-19T17:49:36.595Z,92.10
2018-02-19T17:52:08.199Z,92.70
2018-02-19T17:54:39.082Z,92.70
2018-02-19T17:57:10.594Z,93.70
2018-02-19T17:59:41.482Z,93.70
2018-02-19T18:02:12.893Z,93.10
2018-02-19T18:04:43.896Z,93.10
2018-02-19T18:07:14.477Z,93.10
2018-02-19T18:09:45.146Z,93.30
2018-02-19T18:12:15.749Z,93.00
2018-02-19T18:14:46.484Z,93.10
2018-02-19T18:17:18.182Z,93.50
2018-02-19T18:19:49.439Z,93.20
2018-02-19T18:22:20.219Z,92.60
2018-02-19T18:24:51.870Z,92.50
2018-02-19T18:27:22.848Z,92.30
2018-02-19T18:29:53.669Z,92.00
2018-02-19T18:32:25.266Z,91.90
2018-02-19T18:34:56.050Z,91.90
2018-02-19T18:37:27.794Z,92.00
2018-02-19T18:39:59.368Z,92.30
2018-02-19T18:42:31.274Z,92.50
2018-02-19T18:45:02.132Z,92.50
2018-02-19T18:47:33.063Z,92.30
2018-02-19T18:50:03.986Z,92.30
2018-02-19T18:52:35.092Z,92.10
2018-02-19T18:55:05.720Z,91.80
2018-02-19T18:57:37.331Z,91.40
2018-02-19T19:00:08.441Z,91.40
2018-02-19T19:02:39.519Z,91.10
2018-02-19T19:05:10.374Z,90.90
2018-02-19T19:07:51.855Z,90.60
2018-02-19T19:10:34.280Z,91.20
2018-02-19T19:13:05.755Z,91.00
2018-02-19T19:15:36.646Z,91.00
2018-02-19T19:18:07.174Z,90.90
2018-02-19T19:20:38.086Z,91.40
2018-02-19T19:23:08.870Z,91.10
2018-02-19T19:25:40.594Z,91.30
2018-02-19T19:28:11.415Z,91.20
2018-02-19T19:30:42.165Z,91.30
2018-02-19T19:33:13.088Z,91.50
2018-02-19T19:35:43.939Z,91.60
2018-02-19T19:38:15.014Z,91.50
2018-02-19T19:40:46.645Z,91.20
2018-02-19T19:43:17.526Z,91.20
2018-02-19T19:45:48.175Z,91.30
2018-02-19T19:48:19.056Z,91.40
2018-02-19T19:50:49.756Z,91.20
2018-02-19T19:53:21.717Z,91.20
2018-02-19T19:55:52.659Z,91.10
2018-02-19T19:58:23.554Z,91.00
2018-02-19T20:00:54.447Z,91.40
2018-02-19T20:03:25.199Z,91.30
2018-02-19T20:05:56.009Z,91.20
2018-02-19T20:08:27.150Z,91.40
2018-02-19T20:10:58.005Z,91.10
2018-02-19T20:13:28.754Z,91.10
2018-02-19T20:15:59.652Z,91.10
2018-02-19T20:18:30.662Z,91.30
2018-02-19T20:21:01.431Z,91.10
2018-02-19T20:23:32.811Z,91.20
2018-02-19T20:26:03.847Z,91.20
2018-02-19T20:28:35.282Z,91.20
2018-02-19T20:31:06.226Z,91.20
2018-02-19T20:33:37.102Z,91.30
2018-02-19T20:36:08.765Z,91.20
2018-02-19T20:38:40.418Z,91.10
2018-02-19T20:41:12.023Z,91.10
2018-02-19T20:43:42.982Z,91.10
2018-02-19T20:46:13.943Z,91.10
2018-02-19T20:48:45.862Z,91.20
2018-02-19T20:51:16.682Z,91.20
2018-02-19T20:53:47.473Z,91.00
2018-02-19T20:56:18.321Z,91.20
2018-02-19T20:58:49.944Z,91.00
2018-02-19T21:01:21.786Z,91.00
2018-02-19T21:03:52.485Z,90.80
2018-02-19T21:06:23.273Z,90.70
2018-02-19T21:08:54.371Z,90.80
2018-02-19T21:11:25.453Z,90.90
2018-02-19T21:13:56.406Z,91.00
2018-02-19T21:16:27.251Z,91.00
2018-02-19T21:18:58.836Z,91.10
2018-02-19T21:21:29.627Z,91.10
2018-02-19T21:24:00.186Z,91.20
2018-02-19T21:26:31.005Z,91.40
2018-02-19T21:29:02.658Z,91.40
2018-02-19T21:31:34.255Z,91.40
2018-02-19T21:34:05.122Z,91.40
2018-02-19T21:36:35.998Z,91.40
2018-02-19T21:39:07.738Z,91.60
2018-02-19T21:41:38.742Z,91.60
2018-02-19T21:44:09.682Z,91.50
2018-02-19T21:46:41.502Z,91.30
2018-02-19T21:49:12.421Z,91.30
2018-02-19T21:51:43.946Z,91.00
2018-02-19T21:54:14.845Z,91.30
2018-02-19T21:56:45.743Z,91.10
2018-02-19T21:59:17.279Z,91.60
2018-02-19T22:01:48.105Z,91.60
2018-02-19T22:04:18.709Z,91.60
2018-02-19T22:06:49.587Z,91.60
2018-02-19T22:09:20.675Z,91.70
2018-02-19T22:11:51.414Z,91.70
2018-02-19T22:14:22.367Z,91.70
2018-02-19T22:16:53.350Z,91.60
2018-02-19T22:19:24.260Z,91.80
2018-02-19T22:21:55.166Z,92.00
2018-02-19T22:24:25.927Z,91.60
2018-02-19T22:26:56.647Z,91.40
2018-02-19T22:29:27.523Z,91.10
2018-02-19T22:31:59.123Z,91.30
2018-02-19T22:34:29.903Z,91.30
2018-02-19T22:37:00.812Z,91.30
2018-02-19T22:39:31.379Z,91.40
2018-02-19T22:42:02.335Z,91.40
2018-02-19T22:44:33.894Z,91.50
2018-02-19T22:47:05.615Z,91.80
2018-02-19T22:49:36.564Z,91.80
2018-02-19T22:52:07.340Z,91.70
2018-02-19T22:54:38.046Z,91.40
2018-02-19T22:57:09.410Z,91.40
2018-02-19T22:59:39.989Z,91.40
2018-02-19T23:02:10.629Z,91.50
2018-02-19T23:04:41.322Z,91.50
2018-02-19T23:07:12.309Z,91.60
2018-02-19T23:09:42.808Z,91.70
2018-02-19T23:12:13.543Z,91.80
2018-02-19T23:14:44.302Z,91.70
2018-02-19T23:17:15.038Z,91.80
2018-02-19T23:19:45.863Z,91.80
2018-02-19T23:22:16.660Z,91.80
2018-02-19T23:24:47.438Z,91.70
2018-02-19T23:27:18.181Z,91.10
2018-02-19T23:29:49.115Z,91.00
2018-02-19T23:32:19.931Z,90.90
2018-02-19T23:34:50.658Z,90.90
2018-02-19T23:37:21.402Z,90.70
2018-02-19T23:39:52.393Z,91.20
2018-02-19T23:42:24.506Z,91.70
2018-02-19T23:44:56.202Z,91.60
2018-02-19T23:47:27.003Z,91.60
2018-02-19T23:49:57.950Z,91.60
2018-02-19T23:52:28.626Z,91.60
2018-02-19T23:55:00.387Z,91.10
2018-02-19T23:57:31.987Z,91.00
